Orbital elements of COSMOS 2251 DEB
| Launched | 15 June 1993 |
| Flight ended | – |
| Launch site | Plesetsk Missile and Space Complex, Russia |
| Owner | Commonwealth of Independent States (former USSR) |
| NORAD ID | 33828 |
| Date fetched |
Epoch osculation |
Inc. [°] |
Ecc. | RA asc node [hr] |
Arg Peri. [°] |
Mean anom [°] |
Mean motion [rev/day] |
Abs. mag |
| Date fetched |
Epoch osculation |
Inc. [°] |
Ecc. | RA asc node [hr] |
Arg Peri. [°] |
Mean anom [°] |
Mean motion [rev/day] |
Abs. mag |
| 2026 May 04 17:57 | 2026 Apr 30 14:04:58 | 74.0470 | 0.00281 | 22.6530 | 20.5496 | 8.4627 | 14.44791 | – |
| 2026 May 03 17:57 | 2026 Apr 30 14:04:58 | 74.0470 | 0.00281 | 22.6530 | 20.5496 | 8.4627 | 14.44791 | – |
| 2026 May 02 17:57 | 2026 Apr 30 14:04:58 | 74.0470 | 0.00281 | 22.6530 | 20.5496 | 8.4627 | 14.44791 | – |
| 2026 May 01 17:56 | 2026 Apr 30 14:04:58 | 74.0470 | 0.00281 | 22.6530 | 20.5496 | 8.4627 | 14.44791 | – |
| 2026 Apr 30 17:56 | 2026 Apr 30 14:04:58 | 74.0470 | 0.00281 | 22.6530 | 20.5496 | 8.4627 | 14.44791 | – |
| 2026 Apr 29 17:57 | 2026 Apr 24 00:34:35 | 74.0476 | 0.00278 | 23.4672 | 34.4692 | 8.4627 | 14.44791 | – |
| 2026 Apr 28 17:56 | 2026 Apr 24 00:34:35 | 74.0476 | 0.00278 | 23.4672 | 34.4692 | 8.4627 | 14.44791 | – |
| 2026 Apr 27 17:58 | 2026 Apr 24 00:34:35 | 74.0476 | 0.00278 | 23.4672 | 34.4692 | 8.4627 | 14.44791 | – |
| 2026 Apr 26 17:58 | 2026 Apr 24 00:34:35 | 74.0476 | 0.00278 | 23.4672 | 34.4692 | 8.4627 | 14.44791 | – |
| 2026 Apr 25 17:58 | 2026 Apr 24 00:34:35 | 74.0476 | 0.00278 | 23.4672 | 34.4692 | 8.4627 | 14.44791 | – |
| 2026 Apr 24 17:59 | 2026 Apr 24 00:34:35 | 74.0476 | 0.00278 | 23.4672 | 34.4692 | 8.4627 | 14.44791 | – |
| 2026 Apr 23 17:57 | 2026 Apr 19 11:13:41 | 74.0481 | 0.00276 | 0.0323 | 44.1685 | 8.4627 | 14.44791 | – |
| 2026 Apr 22 17:57 | 2026 Apr 19 11:13:41 | 74.0481 | 0.00276 | 0.0323 | 44.1685 | 8.4627 | 14.44791 | – |
| 2026 Apr 21 17:57 | 2026 Apr 19 11:13:41 | 74.0481 | 0.00276 | 0.0323 | 44.1685 | 8.4627 | 14.44791 | – |
| 2026 Apr 20 17:57 | 2026 Apr 19 11:13:41 | 74.0481 | 0.00276 | 0.0323 | 44.1685 | 8.4627 | 14.44791 | – |
| 2026 Apr 19 17:58 | 2026 Apr 19 11:13:41 | 74.0481 | 0.00276 | 0.0323 | 44.1685 | 8.4627 | 14.44791 | – |
| 2026 Apr 18 17:56 | 2026 Apr 12 20:49:38 | 74.0486 | 0.00274 | 0.8511 | 58.3383 | 8.4627 | 14.44791 | – |
| 2026 Apr 16 17:57 | 2026 Apr 12 20:49:38 | 74.0486 | 0.00274 | 0.8511 | 58.3383 | 8.4627 | 14.44791 | – |
| 2026 Apr 14 17:57 | 2026 Apr 12 20:49:38 | 74.0486 | 0.00274 | 0.8511 | 58.3383 | 8.4627 | 14.44791 | – |
| 2026 Apr 13 17:57 | 2026 Apr 12 20:49:38 | 74.0486 | 0.00274 | 0.8511 | 58.3383 | 8.4627 | 14.44791 | – |
| 2026 Apr 12 17:57 | 2026 Apr 08 05:52:43 | 74.0484 | 0.00272 | 1.4245 | 68.3290 | 8.4627 | 14.44791 | – |
| 2026 Apr 11 17:57 | 2026 Apr 08 05:52:43 | 74.0484 | 0.00272 | 1.4245 | 68.3290 | 8.4627 | 14.44791 | – |
| 2026 Apr 10 17:58 | 2026 Apr 08 05:52:43 | 74.0484 | 0.00272 | 1.4245 | 68.3290 | 8.4627 | 14.44791 | – |
| 2026 Apr 09 18:01 | 2026 Apr 08 05:52:43 | 74.0484 | 0.00272 | 1.4245 | 68.3290 | 8.4627 | 14.44791 | – |
| 2026 Apr 08 17:57 | 2026 Apr 08 05:52:43 | 74.0484 | 0.00272 | 1.4245 | 68.3290 | 8.4627 | 14.44791 | – |
| 2026 Apr 07 17:57 | 2026 Apr 02 06:57:21 | 74.0477 | 0.00270 | 2.1631 | 81.2828 | 8.4627 | 14.44791 | – |